sensor_id;sensor_type;location;lat;lon;timestamp;P1;durP1;ratioP1;P2;durP2;ratioP2
15443;SDS011;7822;48.146;11.576;2023-04-09T00:01:54;2.80;;;2.60;;
15443;SDS011;7822;48.146;11.576;2023-04-09T00:04:21;3.03;;;2.83;;
15443;SDS011;7822;48.146;11.576;2023-04-09T00:06:49;3.00;;;2.80;;
15443;SDS011;7822;48.146;11.576;2023-04-09T00:09:18;3.33;;;3.13;;
15443;SDS011;7822;48.146;11.576;2023-04-09T00:11:46;2.80;;;2.60;;
15443;SDS011;7822;48.146;11.576;2023-04-09T00:14:13;2.83;;;2.63;;
15443;SDS011;7822;48.146;11.576;2023-04-09T00:16:41;2.77;;;2.57;;
15443;SDS011;7822;48.146;11.576;2023-04-09T00:19:09;3.00;;;2.80;;
15443;SDS011;7822;48.146;11.576;2023-04-09T00:21:36;2.87;;;2.67;;
15443;SDS011;7822;48.146;11.576;2023-04-09T00:24:04;2.77;;;2.57;;
15443;SDS011;7822;48.146;11.576;2023-04-09T00:26:33;2.77;;;2.57;;
15443;SDS011;7822;48.146;11.576;2023-04-09T00:29:01;3.03;;;2.83;;
15443;SDS011;7822;48.146;11.576;2023-04-09T00:31:29;2.83;;;2.63;;
15443;SDS011;7822;48.146;11.576;2023-04-09T00:33:56;2.77;;;2.57;;
15443;SDS011;7822;48.146;11.576;2023-04-09T00:36:24;2.77;;;2.57;;
15443;SDS011;7822;48.146;11.576;2023-04-09T00:38:52;2.63;;;2.50;;
15443;SDS011;7822;48.146;11.576;2023-04-09T00:41:20;2.77;;;2.57;;
15443;SDS011;7822;48.146;11.576;2023-04-09T00:43:49;2.80;;;2.60;;
15443;SDS011;7822;48.146;11.576;2023-04-09T00:46:17;3.03;;;2.83;;
15443;SDS011;7822;48.146;11.576;2023-04-09T00:48:45;2.83;;;2.63;;
15443;SDS011;7822;48.146;11.576;2023-04-09T00:51:12;3.03;;;2.83;;
15443;SDS011;7822;48.146;11.576;2023-04-09T00:53:40;2.70;;;2.50;;
15443;SDS011;7822;48.146;11.576;2023-04-09T00:56:09;3.03;;;2.73;;
15443;SDS011;7822;48.146;11.576;2023-04-09T00:58:39;2.57;;;2.37;;
15443;SDS011;7822;48.146;11.576;2023-04-09T01:01:08;2.90;;;2.70;;
15443;SDS011;7822;48.146;11.576;2023-04-09T01:03:36;2.57;;;2.43;;
15443;SDS011;7822;48.146;11.576;2023-04-09T01:06:05;2.80;;;2.60;;
15443;SDS011;7822;48.146;11.576;2023-04-09T01:08:38;2.80;;;2.60;;
15443;SDS011;7822;48.146;11.576;2023-04-09T01:11:19;3.23;;;2.93;;
15443;SDS011;7822;48.146;11.576;2023-04-09T01:13:56;2.67;;;2.47;;
15443;SDS011;7822;48.146;11.576;2023-04-09T01:16:31;2.57;;;2.37;;
15443;SDS011;7822;48.146;11.576;2023-04-09T01:19:01;2.73;;;2.53;;
15443;SDS011;7822;48.146;11.576;2023-04-09T01:21:36;3.03;;;2.83;;
15443;SDS011;7822;48.146;11.576;2023-04-09T01:24:08;2.60;;;2.40;;
15443;SDS011;7822;48.146;11.576;2023-04-09T01:26:53;2.63;;;2.43;;
15443;SDS011;7822;48.146;11.576;2023-04-09T01:29:29;2.90;;;2.70;;
15443;SDS011;7822;48.146;11.576;2023-04-09T01:31:58;2.77;;;2.57;;
15443;SDS011;7822;48.146;11.576;2023-04-09T01:34:28;2.50;;;2.30;;
15443;SDS011;7822;48.146;11.576;2023-04-09T01:36:57;2.23;;;2.13;;
15443;SDS011;7822;48.146;11.576;2023-04-09T01:39:27;2.90;;;2.60;;
15443;SDS011;7822;48.146;11.576;2023-04-09T01:41:55;2.33;;;2.23;;
15443;SDS011;7822;48.146;11.576;2023-04-09T01:44:23;2.43;;;2.33;;
15443;SDS011;7822;48.146;11.576;2023-04-09T01:46:53;2.60;;;2.40;;
15443;SDS011;7822;48.146;11.576;2023-04-09T01:49:22;2.47;;;2.27;;
15443;SDS011;7822;48.146;11.576;2023-04-09T01:51:50;2.13;;;2.03;;
15443;SDS011;7822;48.146;11.576;2023-04-09T01:54:18;2.30;;;2.20;;
15443;SDS011;7822;48.146;11.576;2023-04-09T01:56:47;2.27;;;2.17;;
15443;SDS011;7822;48.146;11.576;2023-04-09T01:59:15;2.40;;;2.20;;
15443;SDS011;7822;48.146;11.576;2023-04-09T02:01:43;2.63;;;2.43;;
15443;SDS011;7822;48.146;11.576;2023-04-09T02:04:16;2.10;;;2.00;;
15443;SDS011;7822;48.146;11.576;2023-04-09T02:06:51;2.80;;;2.60;;
15443;SDS011;7822;48.146;11.576;2023-04-09T02:09:24;2.70;;;2.50;;
15443;SDS011;7822;48.146;11.576;2023-04-09T02:11:55;2.10;;;2.00;;
15443;SDS011;7822;48.146;11.576;2023-04-09T02:14:25;2.40;;;2.20;;
15443;SDS011;7822;48.146;11.576;2023-04-09T02:16:55;2.10;;;2.00;;
15443;SDS011;7822;48.146;11.576;2023-04-09T02:19:24;2.20;;;2.00;;
15443;SDS011;7822;48.146;11.576;2023-04-09T02:21:51;2.67;;;2.47;;
15443;SDS011;7822;48.146;11.576;2023-04-09T02:24:19;2.43;;;2.23;;
15443;SDS011;7822;48.146;11.576;2023-04-09T02:26:47;2.10;;;2.00;;
15443;SDS011;7822;48.146;11.576;2023-04-09T02:29:14;2.80;;;2.50;;
15443;SDS011;7822;48.146;11.576;2023-04-09T02:31:42;2.70;;;2.50;;
15443;SDS011;7822;48.146;11.576;2023-04-09T02:34:10;2.30;;;2.20;;
15443;SDS011;7822;48.146;11.576;2023-04-09T02:36:39;2.40;;;2.20;;
15443;SDS011;7822;48.146;11.576;2023-04-09T02:39:06;2.57;;;2.37;;
15443;SDS011;7822;48.146;11.576;2023-04-09T02:41:34;2.10;;;2.00;;
15443;SDS011;7822;48.146;11.576;2023-04-09T02:44:02;2.30;;;2.20;;
15443;SDS011;7822;48.146;11.576;2023-04-09T02:46:30;2.10;;;2.00;;
15443;SDS011;7822;48.146;11.576;2023-04-09T02:48:57;2.40;;;2.20;;
15443;SDS011;7822;48.146;11.576;2023-04-09T02:51:25;2.40;;;2.30;;
15443;SDS011;7822;48.146;11.576;2023-04-09T02:53:54;2.40;;;2.20;;
15443;SDS011;7822;48.146;11.576;2023-04-09T02:56:22;2.17;;;2.07;;
15443;SDS011;7822;48.146;11.576;2023-04-09T02:58:49;2.20;;;2.10;;
15443;SDS011;7822;48.146;11.576;2023-04-09T03:01:19;2.17;;;2.00;;
15443;SDS011;7822;48.146;11.576;2023-04-09T03:03:47;2.43;;;2.30;;
15443;SDS011;7822;48.146;11.576;2023-04-09T03:06:15;2.53;;;2.33;;
15443;SDS011;7822;48.146;11.576;2023-04-09T03:08:43;2.10;;;2.00;;
15443;SDS011;7822;48.146;11.576;2023-04-09T03:11:12;2.30;;;2.10;;
15443;SDS011;7822;48.146;11.576;2023-04-09T03:13:40;2.40;;;2.20;;
15443;SDS011;7822;48.146;11.576;2023-04-09T03:16:08;2.40;;;2.20;;
15443;SDS011;7822;48.146;11.576;2023-04-09T03:18:36;2.43;;;2.33;;
15443;SDS011;7822;48.146;11.576;2023-04-09T03:21:04;2.10;;;2.00;;
15443;SDS011;7822;48.146;11.576;2023-04-09T03:23:33;2.20;;;2.00;;
15443;SDS011;7822;48.146;11.576;2023-04-09T03:26:02;1.80;;;1.70;;
15443;SDS011;7822;48.146;11.576;2023-04-09T03:28:32;2.27;;;2.10;;
15443;SDS011;7822;48.146;11.576;2023-04-09T03:31:00;2.47;;;2.27;;
15443;SDS011;7822;48.146;11.576;2023-04-09T03:33:27;2.30;;;2.10;;
15443;SDS011;7822;48.146;11.576;2023-04-09T03:35:55;2.00;;;1.90;;
15443;SDS011;7822;48.146;11.576;2023-04-09T03:38:23;2.30;;;2.10;;
15443;SDS011;7822;48.146;11.576;2023-04-09T03:40:50;2.00;;;1.90;;
15443;SDS011;7822;48.146;11.576;2023-04-09T03:43:18;2.07;;;1.90;;
15443;SDS011;7822;48.146;11.576;2023-04-09T03:45:48;2.37;;;2.17;;
15443;SDS011;7822;48.146;11.576;2023-04-09T03:48:15;2.23;;;2.13;;
15443;SDS011;7822;48.146;11.576;2023-04-09T03:50:43;2.20;;;2.10;;
15443;SDS011;7822;48.146;11.576;2023-04-09T03:53:11;2.20;;;2.10;;
15443;SDS011;7822;48.146;11.576;2023-04-09T03:55:38;2.10;;;2.00;;
15443;SDS011;7822;48.146;11.576;2023-04-09T03:58:06;2.33;;;2.10;;
15443;SDS011;7822;48.146;11.576;2023-04-09T04:00:33;2.10;;;2.00;;
15443;SDS011;7822;48.146;11.576;2023-04-09T04:03:02;2.27;;;2.10;;
15443;SDS011;7822;48.146;11.576;2023-04-09T04:05:31;1.97;;;1.87;;
15443;SDS011;7822;48.146;11.576;2023-04-09T04:07:58;2.10;;;2.00;;
15443;SDS011;7822;48.146;11.576;2023-04-09T04:10:26;2.57;;;2.13;;
15443;SDS011;7822;48.146;11.576;2023-04-09T04:12:54;2.00;;;1.90;;
15443;SDS011;7822;48.146;11.576;2023-04-09T04:15:21;2.23;;;2.03;;
15443;SDS011;7822;48.146;11.576;2023-04-09T04:17:49;1.90;;;1.80;;
15443;SDS011;7822;48.146;11.576;2023-04-09T04:20:18;2.17;;;2.07;;
15443;SDS011;7822;48.146;11.576;2023-04-09T04:22:46;1.77;;;1.67;;
15443;SDS011;7822;48.146;11.576;2023-04-09T04:25:13;2.27;;;2.07;;
15443;SDS011;7822;48.146;11.576;2023-04-09T04:27:41;2.20;;;2.10;;
15443;SDS011;7822;48.146;11.576;2023-04-09T04:30:09;2.27;;;2.10;;
15443;SDS011;7822;48.146;11.576;2023-04-09T04:32:37;1.93;;;1.83;;
15443;SDS011;7822;48.146;11.576;2023-04-09T04:35:05;2.17;;;2.00;;
15443;SDS011;7822;48.146;11.576;2023-04-09T04:37:34;2.17;;;2.07;;
15443;SDS011;7822;48.146;11.576;2023-04-09T04:40:02;2.23;;;2.03;;
15443;SDS011;7822;48.146;11.576;2023-04-09T04:42:30;1.83;;;1.73;;
15443;SDS011;7822;48.146;11.576;2023-04-09T04:44:58;2.20;;;2.00;;
15443;SDS011;7822;48.146;11.576;2023-04-09T04:47:26;1.90;;;1.80;;
15443;SDS011;7822;48.146;11.576;2023-04-09T04:49:53;1.97;;;1.87;;
15443;SDS011;7822;48.146;11.576;2023-04-09T04:52:21;2.03;;;1.93;;
15443;SDS011;7822;48.146;11.576;2023-04-09T04:54:50;2.10;;;2.00;;
15443;SDS011;7822;48.146;11.576;2023-04-09T04:57:18;1.83;;;1.70;;
15443;SDS011;7822;48.146;11.576;2023-04-09T04:59:45;1.90;;;1.80;;
15443;SDS011;7822;48.146;11.576;2023-04-09T05:02:13;2.07;;;1.97;;
15443;SDS011;7822;48.146;11.576;2023-04-09T05:04:41;2.10;;;2.00;;
15443;SDS011;7822;48.146;11.576;2023-04-09T05:07:08;1.90;;;1.80;;
15443;SDS011;7822;48.146;11.576;2023-04-09T05:09:36;2.10;;;2.00;;
15443;SDS011;7822;48.146;11.576;2023-04-09T05:12:05;1.70;;;1.60;;
15443;SDS011;7822;48.146;11.576;2023-04-09T05:14:33;1.80;;;1.70;;
15443;SDS011;7822;48.146;11.576;2023-04-09T05:17:01;1.73;;;1.63;;
15443;SDS011;7822;48.146;11.576;2023-04-09T05:19:29;1.80;;;1.70;;
15443;SDS011;7822;48.146;11.576;2023-04-09T05:21:56;2.00;;;1.90;;
15443;SDS011;7822;48.146;11.576;2023-04-09T05:24:24;1.90;;;1.80;;
15443;SDS011;7822;48.146;11.576;2023-04-09T05:26:52;1.80;;;1.70;;
15443;SDS011;7822;48.146;11.576;2023-04-09T05:29:21;2.07;;;1.97;;
15443;SDS011;7822;48.146;11.576;2023-04-09T05:31:48;2.23;;;2.13;;
15443;SDS011;7822;48.146;11.576;2023-04-09T05:34:16;2.20;;;2.10;;
15443;SDS011;7822;48.146;11.576;2023-04-09T05:36:44;2.40;;;2.20;;
15443;SDS011;7822;48.146;11.576;2023-04-09T05:39:11;2.20;;;2.00;;
15443;SDS011;7822;48.146;11.576;2023-04-09T05:41:39;1.93;;;1.83;;
15443;SDS011;7822;48.146;11.576;2023-04-09T05:44:07;2.20;;;2.10;;
15443;SDS011;7822;48.146;11.576;2023-04-09T05:46:36;2.03;;;1.90;;
15443;SDS011;7822;48.146;11.576;2023-04-09T05:49:03;2.33;;;2.13;;
15443;SDS011;7822;48.146;11.576;2023-04-09T05:51:31;1.87;;;1.77;;
15443;SDS011;7822;48.146;11.576;2023-04-09T05:53:59;1.90;;;1.80;;
15443;SDS011;7822;48.146;11.576;2023-04-09T05:56:27;1.93;;;1.83;;
15443;SDS011;7822;48.146;11.576;2023-04-09T05:58:54;1.80;;;1.70;;
15443;SDS011;7822;48.146;11.576;2023-04-09T06:01:22;2.30;;;2.10;;
15443;SDS011;7822;48.146;11.576;2023-04-09T06:03:51;1.77;;;1.67;;
15443;SDS011;7822;48.146;11.576;2023-04-09T06:06:23;2.20;;;2.10;;
15443;SDS011;7822;48.146;11.576;2023-04-09T06:08:51;1.90;;;1.80;;
15443;SDS011;7822;48.146;11.576;2023-04-09T06:11:18;2.17;;;2.07;;
15443;SDS011;7822;48.146;11.576;2023-04-09T06:13:46;2.27;;;2.17;;
15443;SDS011;7822;48.146;11.576;2023-04-09T06:16:14;1.83;;;1.73;;
15443;SDS011;7822;48.146;11.576;2023-04-09T06:18:42;2.00;;;1.90;;
15443;SDS011;7822;48.146;11.576;2023-04-09T06:21:13;1.90;;;1.80;;
15443;SDS011;7822;48.146;11.576;2023-04-09T06:23:42;1.70;;;1.60;;
15443;SDS011;7822;48.146;11.576;2023-04-09T06:26:10;1.90;;;1.80;;
15443;SDS011;7822;48.146;11.576;2023-04-09T06:28:37;1.70;;;1.60;;
15443;SDS011;7822;48.146;11.576;2023-04-09T06:31:05;2.10;;;2.00;;
15443;SDS011;7822;48.146;11.576;2023-04-09T06:33:33;1.73;;;1.63;;
15443;SDS011;7822;48.146;11.576;2023-04-09T06:36:01;1.70;;;1.60;;
15443;SDS011;7822;48.146;11.576;2023-04-09T06:38:30;2.00;;;1.90;;
15443;SDS011;7822;48.146;11.576;2023-04-09T06:40:57;2.40;;;2.20;;
15443;SDS011;7822;48.146;11.576;2023-04-09T06:43:25;2.00;;;1.90;;
15443;SDS011;7822;48.146;11.576;2023-04-09T06:45:53;2.10;;;2.00;;
15443;SDS011;7822;48.146;11.576;2023-04-09T06:48:20;1.83;;;1.73;;
15443;SDS011;7822;48.146;11.576;2023-04-09T06:50:48;2.17;;;1.97;;
15443;SDS011;7822;48.146;11.576;2023-04-09T06:53:16;1.90;;;1.80;;
15443;SDS011;7822;48.146;11.576;2023-04-09T06:55:45;1.90;;;1.80;;
15443;SDS011;7822;48.146;11.576;2023-04-09T06:58:12;1.97;;;1.87;;
15443;SDS011;7822;48.146;11.576;2023-04-09T07:00:41;1.83;;;1.73;;
15443;SDS011;7822;48.146;11.576;2023-04-09T07:03:09;1.83;;;1.73;;
15443;SDS011;7822;48.146;11.576;2023-04-09T07:05:37;1.93;;;1.83;;
15443;SDS011;7822;48.146;11.576;2023-04-09T07:08:04;2.10;;;2.00;;
15443;SDS011;7822;48.146;11.576;2023-04-09T07:10:32;2.03;;;1.90;;
15443;SDS011;7822;48.146;11.576;2023-04-09T07:13:01;1.83;;;1.73;;
15443;SDS011;7822;48.146;11.576;2023-04-09T07:15:29;1.80;;;1.70;;
15443;SDS011;7822;48.146;11.576;2023-04-09T07:17:56;2.30;;;2.20;;
15443;SDS011;7822;48.146;11.576;2023-04-09T07:20:24;2.37;;;2.17;;
15443;SDS011;7822;48.146;11.576;2023-04-09T07:22:52;1.77;;;1.67;;
15443;SDS011;7822;48.146;11.576;2023-04-09T07:25:20;2.33;;;2.13;;
15443;SDS011;7822;48.146;11.576;2023-04-09T07:27:48;1.60;;;1.50;;
15443;SDS011;7822;48.146;11.576;2023-04-09T07:30:17;2.00;;;1.90;;
15443;SDS011;7822;48.146;11.576;2023-04-09T07:32:44;1.97;;;1.87;;
15443;SDS011;7822;48.146;11.576;2023-04-09T07:35:12;2.40;;;2.03;;
15443;SDS011;7822;48.146;11.576;2023-04-09T07:37:40;2.47;;;2.30;;
15443;SDS011;7822;48.146;11.576;2023-04-09T07:40:08;2.07;;;1.97;;
15443;SDS011;7822;48.146;11.576;2023-04-09T07:42:36;1.97;;;1.87;;
15443;SDS011;7822;48.146;11.576;2023-04-09T07:45:04;2.10;;;2.00;;
15443;SDS011;7822;48.146;11.576;2023-04-09T07:47:34;2.20;;;2.00;;
15443;SDS011;7822;48.146;11.576;2023-04-09T07:50:02;2.43;;;2.33;;
15443;SDS011;7822;48.146;11.576;2023-04-09T07:52:30;2.40;;;2.17;;
15443;SDS011;7822;48.146;11.576;2023-04-09T07:54:57;2.60;;;2.40;;
15443;SDS011;7822;48.146;11.576;2023-04-09T07:57:25;2.67;;;2.47;;
15443;SDS011;7822;48.146;11.576;2023-04-09T07:59:53;2.50;;;2.30;;
15443;SDS011;7822;48.146;11.576;2023-04-09T08:02:21;4.67;;;4.37;;
15443;SDS011;7822;48.146;11.576;2023-04-09T08:04:50;2.47;;;2.27;;
15443;SDS011;7822;48.146;11.576;2023-04-09T08:07:18;2.77;;;2.57;;
15443;SDS011;7822;48.146;11.576;2023-04-09T08:09:46;3.00;;;2.70;;
15443;SDS011;7822;48.146;11.576;2023-04-09T08:12:14;2.80;;;2.60;;
15443;SDS011;7822;48.146;11.576;2023-04-09T08:14:41;3.30;;;2.97;;
15443;SDS011;7822;48.146;11.576;2023-04-09T08:17:09;3.43;;;3.13;;
15443;SDS011;7822;48.146;11.576;2023-04-09T08:19:37;3.00;;;2.80;;
15443;SDS011;7822;48.146;11.576;2023-04-09T08:22:08;3.40;;;3.10;;
15443;SDS011;7822;48.146;11.576;2023-04-09T08:24:36;3.30;;;2.97;;
15443;SDS011;7822;48.146;11.576;2023-04-09T08:27:05;3.70;;;3.37;;
15443;SDS011;7822;48.146;11.576;2023-04-09T08:29:32;3.80;;;3.50;;
15443;SDS011;7822;48.146;11.576;2023-04-09T08:32:00;3.70;;;3.30;;
15443;SDS011;7822;48.146;11.576;2023-04-09T08:34:28;3.97;;;3.57;;
15443;SDS011;7822;48.146;11.576;2023-04-09T08:36:56;3.80;;;3.50;;
15443;SDS011;7822;48.146;11.576;2023-04-09T08:39:25;3.83;;;3.53;;
15443;SDS011;7822;48.146;11.576;2023-04-09T08:41:53;4.33;;;3.87;;
15443;SDS011;7822;48.146;11.576;2023-04-09T08:44:25;3.90;;;3.50;;
15443;SDS011;7822;48.146;11.576;2023-04-09T08:46:53;4.23;;;3.83;;
15443;SDS011;7822;48.146;11.576;2023-04-09T08:49:24;4.23;;;3.83;;
15443;SDS011;7822;48.146;11.576;2023-04-09T08:51:51;4.20;;;3.80;;
15443;SDS011;7822;48.146;11.576;2023-04-09T08:54:19;5.50;;;4.80;;
15443;SDS011;7822;48.146;11.576;2023-04-09T08:56:49;4.90;;;4.40;;
15443;SDS011;7822;48.146;11.576;2023-04-09T08:59:17;5.07;;;4.50;;
15443;SDS011;7822;48.146;11.576;2023-04-09T09:01:45;5.43;;;4.93;;
15443;SDS011;7822;48.146;11.576;2023-04-09T09:04:19;4.80;;;4.40;;
15443;SDS011;7822;48.146;11.576;2023-04-09T09:06:46;5.97;;;5.30;;
15443;SDS011;7822;48.146;11.576;2023-04-09T09:09:14;6.27;;;5.20;;
15443;SDS011;7822;48.146;11.576;2023-04-09T09:11:44;5.70;;;5.20;;
15443;SDS011;7822;48.146;11.576;2023-04-09T09:14:15;6.43;;;5.83;;
15443;SDS011;7822;48.146;11.576;2023-04-09T09:17:01;6.10;;;5.20;;
15443;SDS011;7822;48.146;11.576;2023-04-09T09:19:31;6.67;;;5.93;;
15443;SDS011;7822;48.146;11.576;2023-04-09T09:22:01;6.57;;;5.97;;
15443;SDS011;7822;48.146;11.576;2023-04-09T09:24:30;6.53;;;5.93;;
15443;SDS011;7822;48.146;11.576;2023-04-09T09:26:59;6.57;;;5.87;;
15443;SDS011;7822;48.146;11.576;2023-04-09T09:29:29;6.17;;;5.57;;
15443;SDS011;7822;48.146;11.576;2023-04-09T09:31:56;7.47;;;6.83;;
15443;SDS011;7822;48.146;11.576;2023-04-09T09:34:25;6.60;;;6.00;;
15443;SDS011;7822;48.146;11.576;2023-04-09T09:36:52;7.53;;;6.83;;
15443;SDS011;7822;48.146;11.576;2023-04-09T09:39:20;7.23;;;6.53;;
15443;SDS011;7822;48.146;11.576;2023-04-09T09:41:47;7.30;;;6.60;;
15443;SDS011;7822;48.146;11.576;2023-04-09T09:44:34;7.33;;;6.60;;
15443;SDS011;7822;48.146;11.576;2023-04-09T09:47:02;8.07;;;7.23;;
15443;SDS011;7822;48.146;11.576;2023-04-09T09:49:30;7.40;;;6.50;;
15443;SDS011;7822;48.146;11.576;2023-04-09T09:51:58;9.13;;;7.70;;
15443;SDS011;7822;48.146;11.576;2023-04-09T09:54:29;8.97;;;6.90;;
15443;SDS011;7822;48.146;11.576;2023-04-09T09:57:05;9.00;;;7.43;;
15443;SDS011;7822;48.146;11.576;2023-04-09T09:59:37;7.90;;;7.17;;
15443;SDS011;7822;48.146;11.576;2023-04-09T10:02:08;8.60;;;7.40;;
15443;SDS011;7822;48.146;11.576;2023-04-09T10:04:43;9.80;;;8.37;;
15443;SDS011;7822;48.146;11.576;2023-04-09T10:07:12;8.40;;;7.50;;
15443;SDS011;7822;48.146;11.576;2023-04-09T10:09:41;10.33;;;8.83;;
15443;SDS011;7822;48.146;11.576;2023-04-09T10:12:14;8.40;;;7.60;;
15443;SDS011;7822;48.146;11.576;2023-04-09T10:14:44;9.20;;;8.30;;
15443;SDS011;7822;48.146;11.576;2023-04-09T10:17:12;9.13;;;8.23;;
15443;SDS011;7822;48.146;11.576;2023-04-09T10:19:53;9.53;;;8.40;;
15443;SDS011;7822;48.146;11.576;2023-04-09T10:22:39;10.43;;;8.63;;
15443;SDS011;7822;48.146;11.576;2023-04-09T10:25:10;9.33;;;8.40;;
15443;SDS011;7822;48.146;11.576;2023-04-09T10:27:38;11.00;;;9.80;;
15443;SDS011;7822;48.146;11.576;2023-04-09T10:30:09;9.73;;;8.73;;
15443;SDS011;7822;48.146;11.576;2023-04-09T10:32:37;9.60;;;8.43;;
15443;SDS011;7822;48.146;11.576;2023-04-09T10:35:05;9.43;;;8.53;;
15443;SDS011;7822;48.146;11.576;2023-04-09T10:37:35;9.13;;;8.23;;
15443;SDS011;7822;48.146;11.576;2023-04-09T10:40:03;10.40;;;8.53;;
15443;SDS011;7822;48.146;11.576;2023-04-09T10:42:34;10.10;;;9.20;;
15443;SDS011;7822;48.146;11.576;2023-04-09T10:45:05;8.73;;;7.87;;
15443;SDS011;7822;48.146;11.576;2023-04-09T10:47:36;11.00;;;9.30;;
15443;SDS011;7822;48.146;11.576;2023-04-09T10:50:15;8.97;;;8.07;;
15443;SDS011;7822;48.146;11.576;2023-04-09T10:52:44;9.30;;;8.30;;
15443;SDS011;7822;48.146;11.576;2023-04-09T10:57:56;9.33;;;8.40;;
15443;SDS011;7822;48.146;11.576;2023-04-09T11:00:24;10.43;;;8.80;;
15443;SDS011;7822;48.146;11.576;2023-04-09T11:05:50;9.43;;;8.43;;
15443;SDS011;7822;48.146;11.576;2023-04-09T11:08:20;9.90;;;8.80;;
15443;SDS011;7822;48.146;11.576;2023-04-09T11:10:48;9.83;;;8.83;;
15443;SDS011;7822;48.146;11.576;2023-04-09T11:13:17;9.33;;;8.43;;
15443;SDS011;7822;48.146;11.576;2023-04-09T11:15:47;9.67;;;8.77;;
15443;SDS011;7822;48.146;11.576;2023-04-09T11:18:15;10.33;;;9.17;;
15443;SDS011;7822;48.146;11.576;2023-04-09T11:20:48;10.03;;;9.13;;
15443;SDS011;7822;48.146;11.576;2023-04-09T11:23:16;10.17;;;9.17;;
15443;SDS011;7822;48.146;11.576;2023-04-09T11:25:47;9.83;;;8.83;;
15443;SDS011;7822;48.146;11.576;2023-04-09T11:28:16;10.03;;;9.00;;
15443;SDS011;7822;48.146;11.576;2023-04-09T11:30:44;9.53;;;8.63;;
15443;SDS011;7822;48.146;11.576;2023-04-09T11:33:13;10.07;;;9.07;;
15443;SDS011;7822;48.146;11.576;2023-04-09T11:35:45;10.13;;;9.07;;
15443;SDS011;7822;48.146;11.576;2023-04-09T11:38:13;9.83;;;8.87;;
15443;SDS011;7822;48.146;11.576;2023-04-09T11:40:42;9.50;;;8.57;;
15443;SDS011;7822;48.146;11.576;2023-04-09T11:43:15;10.50;;;9.03;;
15443;SDS011;7822;48.146;11.576;2023-04-09T11:45:43;9.53;;;8.63;;
15443;SDS011;7822;48.146;11.576;2023-04-09T11:48:12;9.80;;;8.80;;
15443;SDS011;7822;48.146;11.576;2023-04-09T11:50:41;9.90;;;8.93;;
15443;SDS011;7822;48.146;11.576;2023-04-09T11:53:17;10.03;;;9.03;;
15443;SDS011;7822;48.146;11.576;2023-04-09T11:55:46;11.07;;;9.47;;
15443;SDS011;7822;48.146;11.576;2023-04-09T11:58:15;9.90;;;8.90;;
15443;SDS011;7822;48.146;11.576;2023-04-09T12:00:43;10.20;;;8.93;;
15443;SDS011;7822;48.146;11.576;2023-04-09T12:03:11;9.50;;;8.60;;
15443;SDS011;7822;48.146;11.576;2023-04-09T12:05:43;9.70;;;8.80;;
15443;SDS011;7822;48.146;11.576;2023-04-09T12:08:21;9.60;;;8.70;;
15443;SDS011;7822;48.146;11.576;2023-04-09T12:10:50;9.50;;;8.60;;
15443;SDS011;7822;48.146;11.576;2023-04-09T12:13:19;10.03;;;9.07;;
15443;SDS011;7822;48.146;11.576;2023-04-09T12:15:47;11.37;;;9.23;;
15443;SDS011;7822;48.146;11.576;2023-04-09T12:18:15;10.70;;;9.70;;
15443;SDS011;7822;48.146;11.576;2023-04-09T12:20:44;9.67;;;8.70;;
15443;SDS011;7822;48.146;11.576;2023-04-09T12:23:14;8.77;;;7.87;;
15443;SDS011;7822;48.146;11.576;2023-04-09T12:25:44;9.60;;;8.70;;
15443;SDS011;7822;48.146;11.576;2023-04-09T12:28:13;9.30;;;8.40;;
15443;SDS011;7822;48.146;11.576;2023-04-09T12:30:43;9.73;;;8.77;;
15443;SDS011;7822;48.146;11.576;2023-04-09T12:33:11;10.13;;;9.13;;
15443;SDS011;7822;48.146;11.576;2023-04-09T12:35:39;9.73;;;8.87;;
15443;SDS011;7822;48.146;11.576;2023-04-09T12:38:06;9.53;;;8.53;;
15443;SDS011;7822;48.146;11.576;2023-04-09T12:40:34;10.23;;;9.23;;
15443;SDS011;7822;48.146;11.576;2023-04-09T12:43:04;9.87;;;8.87;;
15443;SDS011;7822;48.146;11.576;2023-04-09T12:45:32;10.40;;;9.30;;
15443;SDS011;7822;48.146;11.576;2023-04-09T12:47:59;9.67;;;8.67;;
15443;SDS011;7822;48.146;11.576;2023-04-09T12:50:27;9.63;;;8.70;;
15443;SDS011;7822;48.146;11.576;2023-04-09T12:52:55;9.23;;;8.43;;
15443;SDS011;7822;48.146;11.576;2023-04-09T12:55:22;9.63;;;8.40;;
15443;SDS011;7822;48.146;11.576;2023-04-09T12:57:50;9.50;;;8.57;;
15443;SDS011;7822;48.146;11.576;2023-04-09T13:00:19;9.57;;;8.67;;
15443;SDS011;7822;48.146;11.576;2023-04-09T13:02:47;9.60;;;8.70;;
15443;SDS011;7822;48.146;11.576;2023-04-09T13:05:15;9.60;;;8.70;;
15443;SDS011;7822;48.146;11.576;2023-04-09T13:07:42;9.53;;;8.63;;
15443;SDS011;7822;48.146;11.576;2023-04-09T13:10:10;9.80;;;8.90;;
15443;SDS011;7822;48.146;11.576;2023-04-09T13:12:38;9.77;;;8.80;;
15443;SDS011;7822;48.146;11.576;2023-04-09T13:15:06;9.67;;;8.77;;
15443;SDS011;7822;48.146;11.576;2023-04-09T13:17:35;9.10;;;8.10;;
15443;SDS011;7822;48.146;11.576;2023-04-09T13:20:03;9.87;;;8.87;;
15443;SDS011;7822;48.146;11.576;2023-04-09T13:22:32;8.60;;;7.80;;
15443;SDS011;7822;48.146;11.576;2023-04-09T13:24:59;9.10;;;8.20;;
15443;SDS011;7822;48.146;11.576;2023-04-09T13:27:27;10.03;;;8.97;;
15443;SDS011;7822;48.146;11.576;2023-04-09T13:29:54;9.03;;;8.23;;
15443;SDS011;7822;48.146;11.576;2023-04-09T13:32:22;9.63;;;8.73;;
15443;SDS011;7822;48.146;11.576;2023-04-09T13:34:51;9.67;;;8.67;;
15443;SDS011;7822;48.146;11.576;2023-04-09T13:37:20;9.23;;;8.33;;
15443;SDS011;7822;48.146;11.576;2023-04-09T13:39:48;9.30;;;8.27;;
15443;SDS011;7822;48.146;11.576;2023-04-09T13:42:16;9.77;;;8.77;;
15443;SDS011;7822;48.146;11.576;2023-04-09T13:44:44;8.80;;;7.90;;
15443;SDS011;7822;48.146;11.576;2023-04-09T13:47:12;8.80;;;8.00;;
15443;SDS011;7822;48.146;11.576;2023-04-09T13:49:41;10.27;;;8.73;;
15443;SDS011;7822;48.146;11.576;2023-04-09T13:52:10;8.97;;;8.17;;
15443;SDS011;7822;48.146;11.576;2023-04-09T13:54:38;9.67;;;8.77;;
15443;SDS011;7822;48.146;11.576;2023-04-09T13:57:06;9.23;;;8.40;;
15443;SDS011;7822;48.146;11.576;2023-04-09T13:59:33;8.50;;;7.70;;
15443;SDS011;7822;48.146;11.576;2023-04-09T14:02:01;9.23;;;8.33;;
15443;SDS011;7822;48.146;11.576;2023-04-09T14:04:29;10.13;;;9.13;;
15443;SDS011;7822;48.146;11.576;2023-04-09T14:06:57;9.03;;;8.13;;
15443;SDS011;7822;48.146;11.576;2023-04-09T14:09:26;9.27;;;8.43;;
15443;SDS011;7822;48.146;11.576;2023-04-09T14:11:53;8.87;;;8.07;;
15443;SDS011;7822;48.146;11.576;2023-04-09T14:14:21;9.47;;;8.57;;
15443;SDS011;7822;48.146;11.576;2023-04-09T14:16:49;8.90;;;8.10;;
15443;SDS011;7822;48.146;11.576;2023-04-09T14:19:17;8.93;;;8.03;;
15443;SDS011;7822;48.146;11.576;2023-04-09T14:21:44;9.03;;;8.23;;
15443;SDS011;7822;48.146;11.576;2023-04-09T14:24:12;8.67;;;7.87;;
15443;SDS011;7822;48.146;11.576;2023-04-09T14:26:41;8.93;;;8.07;;
15443;SDS011;7822;48.146;11.576;2023-04-09T14:29:08;9.00;;;8.10;;
15443;SDS011;7822;48.146;11.576;2023-04-09T14:31:36;9.33;;;8.43;;
15443;SDS011;7822;48.146;11.576;2023-04-09T14:34:04;8.90;;;8.00;;
15443;SDS011;7822;48.146;11.576;2023-04-09T14:36:31;8.60;;;7.80;;
15443;SDS011;7822;48.146;11.576;2023-04-09T14:38:59;8.80;;;7.90;;
15443;SDS011;7822;48.146;11.576;2023-04-09T14:41:27;9.30;;;8.43;;
15443;SDS011;7822;48.146;11.576;2023-04-09T14:43:56;9.00;;;8.10;;
15443;SDS011;7822;48.146;11.576;2023-04-09T14:46:23;8.90;;;8.10;;
15443;SDS011;7822;48.146;11.576;2023-04-09T14:48:51;8.53;;;7.83;;
15443;SDS011;7822;48.146;11.576;2023-04-09T14:51:19;9.23;;;8.20;;
15443;SDS011;7822;48.146;11.576;2023-04-09T14:53:47;8.50;;;7.70;;
15443;SDS011;7822;48.146;11.576;2023-04-09T14:56:14;7.60;;;6.90;;
15443;SDS011;7822;48.146;11.576;2023-04-09T14:58:42;8.80;;;8.00;;
15443;SDS011;7822;48.146;11.576;2023-04-09T15:01:11;7.93;;;7.23;;